createdAt,value
2024-02-19T00:00:10.799Z,101383.75
2024-02-19T00:02:37.613Z,101391.00
2024-02-19T00:05:05.729Z,101389.53
2024-02-19T00:07:33.296Z,101385.13
2024-02-19T00:10:00.909Z,101389.06
2024-02-19T00:12:27.635Z,101384.00
2024-02-19T00:14:54.241Z,101393.69
2024-02-19T00:17:20.868Z,101390.53
2024-02-19T00:19:47.485Z,101387.53
2024-02-19T00:22:14.148Z,101382.03
2024-02-19T00:24:40.891Z,101386.47
2024-02-19T00:27:08.458Z,101383.78
2024-02-19T00:29:35.187Z,101385.16
2024-02-19T00:32:01.839Z,101386.72
2024-02-19T00:34:28.430Z,101395.34
2024-02-19T00:36:55.897Z,101387.97
2024-02-19T00:39:22.596Z,101387.31
2024-02-19T00:41:49.235Z,101392.44
2024-02-19T00:44:15.845Z,101390.91
2024-02-19T00:46:42.413Z,101392.97
2024-02-19T00:49:09.133Z,101383.38
2024-02-19T00:51:36.611Z,101382.03
2024-02-19T00:54:03.238Z,101376.00
2024-02-19T00:56:29.848Z,101377.38
2024-02-19T00:58:56.442Z,101377.38
2024-02-19T01:01:23.363Z,101378.75
2024-02-19T01:03:50.255Z,101371.03
2024-02-19T01:06:16.903Z,101373.88
2024-02-19T01:08:43.594Z,101378.81
2024-02-19T01:11:12.100Z,101377.13
2024-02-19T01:13:40.934Z,101378.81
2024-02-19T01:16:09.711Z,101376.25
2024-02-19T01:18:37.219Z,101378.81
2024-02-19T01:21:04.682Z,101374.06
2024-02-19T01:23:31.427Z,101368.47
2024-02-19T01:25:57.967Z,101375.56
2024-02-19T01:28:24.711Z,101380.78
2024-02-19T01:30:51.416Z,101378.09
2024-02-19T01:33:18.097Z,101372.69
2024-02-19T01:35:46.151Z,101374.91
2024-02-19T01:38:13.146Z,101370.53
2024-02-19T01:40:39.845Z,101382.16
2024-02-19T01:43:11.394Z,101382.16
2024-02-19T01:45:41.054Z,101376.75
2024-02-19T01:48:09.384Z,101374.72
2024-02-19T01:50:38.940Z,101380.09
2024-02-19T01:53:08.909Z,101389.91
2024-02-19T01:55:38.436Z,101387.19
2024-02-19T01:58:07.868Z,101385.34
2024-02-19T02:00:34.986Z,101380.09
2024-02-19T02:03:03.678Z,101379.09
2024-02-19T02:05:30.720Z,101383.66
2024-02-19T02:07:57.723Z,101382.66
2024-02-19T02:10:24.591Z,101383.28
2024-02-19T02:12:51.644Z,101379.75
2024-02-19T02:15:18.401Z,101386.81
2024-02-19T02:17:45.488Z,101382.47
2024-02-19T02:20:12.533Z,101379.75
2024-02-19T02:22:39.931Z,101379.75
2024-02-19T02:25:07.074Z,101386.81
2024-02-19T02:27:33.932Z,101378.75
2024-02-19T02:30:02.909Z,101381.44
2024-02-19T02:32:29.787Z,101382.09
2024-02-19T02:34:56.456Z,101384.78
2024-02-19T02:37:23.522Z,101383.59
2024-02-19T02:39:50.210Z,101377.00
2024-02-19T02:42:16.946Z,101380.53
2024-02-19T02:44:43.570Z,101388.63
2024-02-19T02:47:10.164Z,101379.69
2024-02-19T02:49:37.364Z,101369.94
2024-02-19T02:52:04.159Z,101386.13
2024-02-19T02:54:30.852Z,101374.47
2024-02-19T02:56:57.448Z,101379.03
2024-02-19T02:59:24.054Z,101381.94
2024-02-19T03:01:51.076Z,101381.09
2024-02-19T03:04:17.872Z,101379.75
2024-02-19T03:06:44.840Z,101378.94
2024-02-19T03:09:11.537Z,101381.81
2024-02-19T03:11:38.130Z,101387.53
2024-02-19T03:14:04.866Z,101388.91
2024-02-19T03:16:31.757Z,101394.69
2024-02-19T03:18:58.408Z,101393.53
2024-02-19T03:21:25.414Z,101400.28
2024-02-19T03:23:54.619Z,101404.19
2024-02-19T03:28:58.749Z,101419.75
2024-02-19T03:31:25.465Z,101403.44
2024-02-19T03:33:52.195Z,101407.84
2024-02-19T03:36:19.701Z,101414.91
2024-02-19T03:38:46.383Z,101410.38
2024-02-19T03:41:13.396Z,101421.03
2024-02-19T03:43:39.952Z,101418.19
2024-02-19T03:46:06.784Z,101416.19
2024-02-19T03:48:33.643Z,101418.56
2024-02-19T03:51:00.261Z,101426.97
2024-02-19T03:53:26.948Z,101428.34
2024-02-19T03:55:53.529Z,101425.13
2024-02-19T03:58:20.243Z,101420.25
2024-02-19T04:00:47.016Z,101422.28
2024-02-19T04:03:14.425Z,101420.75
2024-02-19T04:05:41.166Z,101429.19
2024-02-19T04:08:09.874Z,101424.00
2024-02-19T04:10:37.078Z,101429.53
2024-02-19T04:13:03.974Z,101427.84
2024-02-19T04:15:31.417Z,101429.03
2024-02-19T04:17:58.087Z,101428.22
2024-02-19T04:20:24.879Z,101434.44
2024-02-19T04:22:51.478Z,101444.34
2024-02-19T04:25:18.118Z,101445.53
2024-02-19T04:27:46.052Z,101449.53
2024-02-19T04:30:12.773Z,101445.19
2024-02-19T04:32:39.400Z,101443.16
2024-02-19T04:35:06.526Z,101454.94
2024-02-19T04:37:33.364Z,101458.47
2024-02-19T04:39:59.965Z,101472.78
2024-02-19T04:42:26.588Z,101465.72
2024-02-19T04:44:53.273Z,101466.06
2024-02-19T04:47:19.920Z,101467.75
2024-02-19T04:49:48.329Z,101471.13
2024-02-19T04:52:14.996Z,101471.28
2024-02-19T04:54:41.716Z,101471.63
2024-02-19T04:57:08.279Z,101476.16
2024-02-19T04:59:34.830Z,101482.56
2024-02-19T05:02:01.774Z,101489.78
2024-02-19T05:04:28.638Z,101496.34
2024-02-19T05:06:55.398Z,101492.47
2024-02-19T05:09:22.058Z,101500.72
2024-02-19T05:11:49.150Z,101499.03
2024-02-19T05:14:16.051Z,101497.38
2024-02-19T05:16:42.663Z,101514.69
2024-02-19T05:19:11.122Z,101512.16
2024-02-19T05:21:42.587Z,101514.19
2024-02-19T05:24:14.558Z,101525.28
2024-02-19T05:26:41.522Z,101516.34
2024-02-19T05:29:11.363Z,101526.78
2024-02-19T05:31:40.080Z,101528.97
2024-02-19T05:34:08.189Z,101528.63
2024-02-19T05:36:36.045Z,101540.72
2024-02-19T05:39:03.259Z,101542.03
2024-02-19T05:41:30.006Z,101549.75
2024-02-19T05:43:57.306Z,101557.16
2024-02-19T05:46:24.346Z,101551.94
2024-02-19T05:48:52.460Z,101565.72
2024-02-19T05:51:19.544Z,101582.03
2024-02-19T05:53:47.671Z,101564.22
2024-02-19T05:56:14.433Z,101577.13
2024-02-19T05:58:41.948Z,101575.78
2024-02-19T06:01:09.057Z,101591.06
2024-02-19T06:03:36.459Z,101584.34
2024-02-19T06:06:04.445Z,101591.69
2024-02-19T06:08:31.398Z,101591.19
2024-02-19T06:10:58.791Z,101593.53
2024-02-19T06:13:26.556Z,101599.06
2024-02-19T06:15:53.515Z,101598.38
2024-02-19T06:18:20.784Z,101600.38
2024-02-19T06:20:49.004Z,101607.78
2024-02-19T06:23:16.253Z,101606.06
2024-02-19T06:25:46.158Z,101617.84
2024-02-19T06:28:14.977Z,101616.47
2024-02-19T06:30:41.842Z,101619.47
2024-02-19T06:33:09.078Z,101632.75
2024-02-19T06:35:35.802Z,101628.72
2024-02-19T06:38:02.623Z,101632.25
2024-02-19T06:40:29.714Z,101626.03
2024-02-19T06:42:56.613Z,101642.16
2024-02-19T06:45:23.463Z,101647.66
2024-02-19T06:47:51.238Z,101646.66
2024-02-19T06:50:18.011Z,101656.56
2024-02-19T06:52:47.331Z,101655.59
2024-02-19T06:55:18.462Z,101660.09
2024-02-19T06:57:45.328Z,101665.66
2024-02-19T07:00:14.222Z,101663.66
2024-02-19T07:02:41.071Z,101671.88
2024-02-19T07:05:09.268Z,101672.69
2024-02-19T07:07:36.860Z,101679.94
2024-02-19T07:10:04.918Z,101686.31
2024-02-19T07:12:32.133Z,101691.38
2024-02-19T07:15:00.051Z,101695.31
2024-02-19T07:17:28.117Z,101695.13
2024-02-19T07:19:54.940Z,101700.34
2024-02-19T07:22:22.164Z,101702.19
2024-02-19T07:24:49.019Z,101708.56
2024-02-19T07:27:15.837Z,101714.34
2024-02-19T07:29:43.269Z,101712.31
2024-02-19T07:32:10.053Z,101714.84
2024-02-19T07:34:37.084Z,101726.13
2024-02-19T07:37:04.652Z,101721.44
2024-02-19T07:39:31.303Z,101727.16
2024-02-19T07:41:58.064Z,101724.13
2024-02-19T07:44:24.618Z,101731.34
2024-02-19T07:46:51.270Z,101744.63
2024-02-19T07:49:17.946Z,101741.94
2024-02-19T07:51:44.714Z,101752.69
2024-02-19T07:54:11.437Z,101750.00
2024-02-19T07:56:38.120Z,101760.78
2024-02-19T07:59:04.844Z,101762.09
2024-02-19T08:01:31.658Z,101764.41
2024-02-19T08:03:58.530Z,101772.47
2024-02-19T08:06:25.420Z,101769.34
2024-02-19T08:08:52.272Z,101771.84
2024-02-19T08:11:19.872Z,101773.91
2024-02-19T08:13:47.252Z,101784.50
2024-02-19T08:16:14.795Z,101792.75
2024-02-19T08:18:42.139Z,101794.44
2024-02-19T08:21:10.052Z,101796.97
2024-02-19T08:23:37.652Z,101795.81
2024-02-19T08:26:04.543Z,101792.44
2024-02-19T08:28:31.435Z,101796.38
2024-02-19T08:30:58.525Z,101797.50
2024-02-19T08:33:25.609Z,101810.78
2024-02-19T08:35:52.401Z,101804.44
2024-02-19T08:38:19.320Z,101806.63
2024-02-19T08:40:45.954Z,101803.66
2024-02-19T08:43:12.924Z,101806.84
2024-02-19T08:45:41.524Z,101814.44
2024-02-19T08:48:08.777Z,101801.53
2024-02-19T08:50:36.195Z,101800.91
2024-02-19T08:53:03.134Z,101808.00
2024-02-19T08:55:29.988Z,101812.09
2024-02-19T08:57:56.946Z,101807.75
2024-02-19T09:00:24.961Z,101820.75
2024-02-19T09:02:51.747Z,101823.25
2024-02-19T09:05:21.680Z,101821.44
2024-02-19T09:07:48.732Z,101824.13
2024-02-19T09:10:15.927Z,101822.28
2024-02-19T09:12:43.715Z,101830.19
2024-02-19T09:15:11.009Z,101824.16
2024-02-19T09:17:37.835Z,101816.09
2024-02-19T09:20:06.382Z,101812.38
2024-02-19T09:22:32.992Z,101818.16
2024-02-19T09:25:00.629Z,101822.88
2024-02-19T09:27:27.368Z,101827.25
2024-02-19T09:29:54.113Z,101824.94
2024-02-19T09:32:21.173Z,101824.63
2024-02-19T09:34:48.150Z,101827.34
2024-02-19T09:37:15.204Z,101824.69
2024-02-19T09:39:42.210Z,101822.88
2024-02-19T09:42:12.476Z,101819.34
2024-02-19T09:44:39.044Z,101821.41
2024-02-19T09:47:08.580Z,101818.88
2024-02-19T09:49:37.592Z,101827.84
2024-02-19T09:52:06.661Z,101819.78
2024-02-19T09:54:33.383Z,101818.47
2024-02-19T09:57:00.730Z,101826.56
2024-02-19T09:59:30.136Z,101828.28
2024-02-19T10:01:56.976Z,101821.53
2024-02-19T10:04:24.099Z,101827.09
2024-02-19T10:06:53.304Z,101822.75
2024-02-19T10:09:21.413Z,101836.72
2024-02-19T10:11:50.731Z,101836.41
2024-02-19T10:14:18.196Z,101838.75
2024-02-19T10:16:54.786Z,101847.53
2024-02-19T10:19:21.596Z,101832.00
2024-02-19T10:21:51.538Z,101846.69
2024-02-19T10:24:18.977Z,101840.75
2024-02-19T10:26:49.002Z,101839.59
2024-02-19T10:29:15.869Z,101853.09
2024-02-19T10:31:42.840Z,101849.03
2024-02-19T10:34:14.836Z,101848.03
2024-02-19T10:36:42.302Z,101855.13
2024-02-19T10:39:12.595Z,101852.59
2024-02-19T10:41:40.058Z,101854.63
2024-02-19T10:44:07.488Z,101851.22
2024-02-19T10:46:34.627Z,101847.53
2024-02-19T10:49:02.871Z,101847.53
2024-02-19T10:51:30.419Z,101854.63
2024-02-19T10:54:05.691Z,101849.22
2024-02-19T10:59:39.682Z,101848.72
2024-02-19T11:02:13.004Z,101835.38
2024-02-19T11:07:48.339Z,101842.97
2024-02-19T11:10:24.702Z,101837.03
2024-02-19T11:13:01.829Z,101832.94
2024-02-19T11:18:41.820Z,101830.50
2024-02-19T11:24:20.759Z,101827.84
2024-02-19T11:26:56.172Z,101830.09
2024-02-19T11:29:25.468Z,101823.50
2024-02-19T11:32:05.930Z,101819.28
2024-02-19T11:34:51.398Z,101819.56
2024-02-19T11:40:05.778Z,101825.00
2024-02-19T11:45:30.164Z,101812.31
2024-02-19T11:48:11.790Z,101798.56
2024-02-19T11:53:46.457Z,101790.59
2024-02-19T11:56:22.193Z,101797.81
2024-02-19T11:58:53.078Z,101799.28
2024-02-19T12:01:26.150Z,101796.75
2024-02-19T12:04:04.373Z,101795.88
2024-02-19T12:06:50.171Z,101808.31
2024-02-19T12:09:32.815Z,101796.44
2024-02-19T12:12:01.915Z,101793.75
2024-02-19T12:14:52.780Z,101787.84
2024-02-19T12:17:45.458Z,101789.06
2024-02-19T12:20:49.232Z,101785.44
2024-02-19T12:23:20.497Z,101782.91
2024-02-19T12:28:58.208Z,101787.13
2024-02-19T12:31:53.578Z,101770.13
2024-02-19T12:34:39.840Z,101777.13
2024-02-19T12:37:27.517Z,101770.41
2024-02-19T12:40:26.657Z,101765.72
2024-02-19T12:42:59.752Z,101758.09
2024-02-19T12:45:33.111Z,101761.56
2024-02-19T12:48:05.197Z,101742.00
2024-02-19T12:50:39.013Z,101741.09
2024-02-19T12:56:04.455Z,101734.47
2024-02-19T12:58:57.245Z,101726.28
2024-02-19T13:01:42.407Z,101733.56
2024-02-19T13:04:12.420Z,101733.25
2024-02-19T13:06:54.590Z,101725.97
2024-02-19T13:09:32.785Z,101732.47
2024-02-19T13:12:14.684Z,101726.56
2024-02-19T13:14:50.308Z,101733.69
2024-02-19T13:23:45.887Z,101724.75
2024-02-19T13:29:12.054Z,101726.84
2024-02-19T13:31:45.410Z,101733.84
2024-02-19T13:34:29.152Z,101735.56
2024-02-19T13:37:10.805Z,101726.63
2024-02-19T13:39:46.762Z,101741.22
2024-02-19T13:42:18.645Z,101733.28
2024-02-19T13:44:55.348Z,101733.06
2024-02-19T13:47:24.735Z,101740.56
2024-02-19T13:49:53.369Z,101750.22
2024-02-19T13:52:35.924Z,101741.47
2024-02-19T13:58:36.640Z,101759.56
2024-02-19T14:01:57.668Z,101767.53
2024-02-19T14:11:08.413Z,101773.44
2024-02-19T14:13:54.884Z,101771.63
2024-02-19T14:25:15.720Z,101774.22
2024-02-19T14:27:46.882Z,101774.69
2024-02-19T14:33:08.951Z,101761.94
2024-02-19T14:35:55.136Z,101750.59
2024-02-19T14:38:24.869Z,101749.03
2024-02-19T14:40:56.995Z,101752.50
2024-02-19T14:43:39.143Z,101759.31
2024-02-19T14:46:26.510Z,101751.66
2024-02-19T14:49:08.304Z,101746.59
2024-02-19T14:54:48.756Z,101741.94
2024-02-19T14:57:39.154Z,101748.44
2024-02-19T15:00:13.296Z,101736.09
2024-02-19T15:03:14.952Z,101736.25
2024-02-19T15:06:23.254Z,101750.50
2024-02-19T15:08:52.664Z,101738.06
2024-02-19T15:11:20.645Z,101730.59
2024-02-19T15:13:58.213Z,101744.97
2024-02-19T15:16:28.825Z,101745.16
2024-02-19T15:19:13.702Z,101729.09
2024-02-19T15:21:42.174Z,101742.16
2024-02-19T15:24:29.446Z,101743.59
2024-02-19T15:29:52.610Z,101760.06
2024-02-19T15:32:29.593Z,101760.25
2024-02-19T15:35:19.098Z,101759.59
2024-02-19T15:40:29.395Z,101760.91
2024-02-19T15:45:46.810Z,101763.25
2024-02-19T15:48:23.624Z,101750.56
2024-02-19T15:50:50.749Z,101752.75
2024-02-19T15:53:29.727Z,101771.25
2024-02-19T15:56:29.754Z,101761.09
2024-02-19T15:59:06.926Z,101768.78
2024-02-19T16:01:39.538Z,101762.63
2024-02-19T16:04:10.297Z,101771.13
2024-02-19T16:06:53.325Z,101766.59
2024-02-19T16:09:27.593Z,101768.22
2024-02-19T16:12:18.894Z,101749.75
2024-02-19T16:14:48.573Z,101774.06
2024-02-19T16:17:23.354Z,101773.06
2024-02-19T16:19:56.056Z,101773.25
2024-02-19T16:22:48.310Z,101763.66
2024-02-19T16:25:20.613Z,101776.97
2024-02-19T16:27:55.715Z,101773.44
2024-02-19T16:30:35.067Z,101775.31
2024-02-19T16:33:03.753Z,101776.13
2024-02-19T16:35:38.526Z,101772.75
2024-02-19T16:38:23.419Z,101779.03
2024-02-19T16:40:57.574Z,101773.44
2024-02-19T16:43:28.721Z,101780.69
2024-02-19T16:46:08.400Z,101778.00
2024-02-19T16:48:42.401Z,101781.88
2024-02-19T16:51:14.242Z,101779.69
2024-02-19T16:53:56.488Z,101789.47
2024-02-19T16:56:31.415Z,101786.59
2024-02-19T16:59:12.814Z,101788.94
2024-02-19T17:01:43.614Z,101789.78
2024-02-19T17:04:20.053Z,101783.53
2024-02-19T17:06:47.931Z,101786.44
2024-02-19T17:09:16.680Z,101787.28
2024-02-19T17:11:44.707Z,101803.81
2024-02-19T17:14:14.219Z,101789.59
2024-02-19T17:16:52.796Z,101782.19
2024-02-19T17:19:24.421Z,101795.38
2024-02-19T17:21:58.756Z,101794.69
2024-02-19T17:24:28.121Z,101791.16
2024-02-19T17:27:01.881Z,101800.59
2024-02-19T17:29:31.193Z,101792.31
2024-02-19T17:32:00.351Z,101798.56
2024-02-19T17:34:31.032Z,101788.59
2024-02-19T17:36:59.677Z,101791.47
2024-02-19T17:39:27.617Z,101797.06
2024-02-19T17:44:47.412Z,101807.88
2024-02-19T17:47:15.656Z,101798.41
2024-02-19T17:49:43.281Z,101796.75
2024-02-19T17:52:11.800Z,101793.72
2024-02-19T17:54:39.593Z,101802.78
2024-02-19T17:57:09.029Z,101800.78
2024-02-19T17:59:36.987Z,101794.34
2024-02-19T18:02:05.073Z,101804.13
2024-02-19T18:04:33.447Z,101795.19
2024-02-19T18:07:02.966Z,101798.06
2024-02-19T18:09:37.436Z,101795.91
2024-02-19T18:12:08.640Z,101793.91
2024-02-19T18:14:42.219Z,101805.25
2024-02-19T18:17:13.208Z,101793.47
2024-02-19T18:19:45.533Z,101804.28
2024-02-19T18:22:17.236Z,101799.19
2024-02-19T18:24:50.644Z,101792.50
2024-02-19T18:27:18.699Z,101793.00
2024-02-19T18:29:45.644Z,101801.28
2024-02-19T18:32:19.068Z,101804.31
2024-02-19T18:34:55.913Z,101809.09
2024-02-19T18:37:27.494Z,101799.28
2024-02-19T18:40:08.074Z,101803.69
2024-02-19T18:42:45.007Z,101804.00
2024-02-19T18:45:22.236Z,101809.09
2024-02-19T18:47:56.801Z,101802.16
2024-02-19T18:50:32.187Z,101800.63
2024-02-19T18:53:08.759Z,101796.06
2024-02-19T18:55:36.219Z,101799.13
2024-02-19T18:58:06.853Z,101792.00
2024-02-19T19:00:39.378Z,101801.28
2024-02-19T19:03:08.605Z,101801.28
2024-02-19T19:08:21.074Z,101800.28
2024-02-19T19:10:53.084Z,101806.69
2024-02-19T19:13:25.561Z,101805.00
2024-02-19T19:15:52.910Z,101805.34
2024-02-19T19:18:21.211Z,101800.09
2024-02-19T19:20:48.616Z,101803.63
2024-02-19T19:23:17.236Z,101795.53
2024-02-19T19:25:44.390Z,101795.88
2024-02-19T19:28:11.670Z,101799.28
2024-02-19T19:30:38.580Z,101794.00
2024-02-19T19:33:08.926Z,101797.56
2024-02-19T19:35:42.107Z,101797.56
2024-02-19T19:38:11.875Z,101796.22
2024-02-19T19:40:38.589Z,101800.91
2024-02-19T19:43:05.319Z,101798.06
2024-02-19T19:45:32.184Z,101792.69
2024-02-19T19:47:58.839Z,101791.53
2024-02-19T19:50:26.111Z,101804.69
2024-02-19T19:52:53.581Z,101795.91
2024-02-19T19:55:20.258Z,101793.56
2024-02-19T19:57:59.332Z,101790.84
2024-02-19T20:00:27.919Z,101799.81
2024-02-19T20:02:54.834Z,101789.00
2024-02-19T20:05:21.750Z,101798.47
2024-02-19T20:07:48.675Z,101794.25
2024-02-19T20:10:16.067Z,101793.88
2024-02-19T20:12:42.764Z,101801.47
2024-02-19T20:15:09.766Z,101796.25
2024-02-19T20:17:36.989Z,101795.25
2024-02-19T20:20:04.079Z,101788.34
2024-02-19T20:22:31.837Z,101793.22
2024-02-19T20:24:58.847Z,101798.63
2024-02-19T20:27:25.410Z,101795.41
2024-02-19T20:29:52.818Z,101793.50
2024-02-19T20:32:23.410Z,101788.63
2024-02-19T20:34:50.569Z,101802.59
2024-02-19T20:37:20.508Z,101796.22
2024-02-19T20:39:47.294Z,101797.03
2024-02-19T20:42:16.353Z,101799.91
2024-02-19T20:44:47.373Z,101804.81
2024-02-19T20:47:14.326Z,101806.81
2024-02-19T20:49:43.140Z,101802.97
2024-02-19T20:52:10.268Z,101797.88
2024-02-19T20:54:36.981Z,101800.59
2024-02-19T20:57:04.943Z,101802.13
2024-02-19T20:59:33.875Z,101798.72
2024-02-19T21:02:00.790Z,101801.59
2024-02-19T21:04:27.743Z,101790.44
2024-02-19T21:06:54.507Z,101798.22
2024-02-19T21:09:21.799Z,101795.16
2024-02-19T21:11:48.722Z,101791.97
2024-02-19T21:14:15.408Z,101795.66
2024-02-19T21:16:44.882Z,101805.63
2024-02-19T21:19:12.552Z,101800.22
2024-02-19T21:21:39.273Z,101798.53
2024-02-19T21:24:06.825Z,101806.66
2024-02-19T21:26:33.734Z,101807.63
2024-02-19T21:29:00.426Z,101804.09
2024-02-19T21:31:27.161Z,101804.78
2024-02-19T21:33:54.129Z,101806.78
2024-02-19T21:36:21.064Z,101798.88
2024-02-19T21:38:49.446Z,101809.03
2024-02-19T21:41:16.637Z,101805.63
2024-02-19T21:43:46.367Z,101789.44
2024-02-19T21:46:13.365Z,101802.94
2024-02-19T21:48:41.436Z,101810.00
2024-02-19T21:51:09.019Z,101799.19
2024-02-19T21:53:35.620Z,101810.00
2024-02-19T21:56:03.279Z,101809.16
2024-02-19T21:58:30.874Z,101798.72
2024-02-19T22:00:57.719Z,101810.38
2024-02-19T22:03:25.126Z,101805.16
2024-02-19T22:05:51.940Z,101805.00
2024-02-19T22:08:19.640Z,101799.75
2024-02-19T22:10:46.415Z,101802.63
2024-02-19T22:13:13.098Z,101802.97
2024-02-19T22:15:39.876Z,101795.03
2024-02-19T22:18:06.866Z,101793.16
2024-02-19T22:20:33.535Z,101799.94
2024-02-19T22:23:00.089Z,101794.56
2024-02-19T22:25:27.803Z,101790.00
2024-02-19T22:27:55.265Z,101786.59
2024-02-19T22:30:24.204Z,101797.41
2024-02-19T22:32:51.040Z,101797.41
2024-02-19T22:35:17.842Z,101806.69
2024-02-19T22:37:44.525Z,101809.56
2024-02-19T22:40:12.527Z,101806.03
2024-02-19T22:42:39.117Z,101808.38
2024-02-19T22:45:07.455Z,101814.44
2024-02-19T22:47:35.055Z,101818.50
2024-02-19T22:50:05.385Z,101808.53
2024-02-19T22:52:33.119Z,101810.91
2024-02-19T22:55:02.037Z,101810.06
2024-02-19T22:57:28.788Z,101813.78
2024-02-19T22:59:55.487Z,101808.72
2024-02-19T23:02:22.104Z,101809.56
2024-02-19T23:04:49.369Z,101812.91
2024-02-19T23:07:16.058Z,101816.81
2024-02-19T23:09:42.726Z,101815.31
2024-02-19T23:12:09.533Z,101814.44
2024-02-19T23:14:36.157Z,101819.00
2024-02-19T23:17:02.771Z,101823.41
2024-02-19T23:19:29.789Z,101819.84
2024-02-19T23:21:56.433Z,101818.16
2024-02-19T23:24:23.522Z,101820.72
2024-02-19T23:26:50.112Z,101826.94
2024-02-19T23:29:16.788Z,101821.56
2024-02-19T23:31:44.021Z,101819.84
2024-02-19T23:34:10.949Z,101822.72
2024-02-19T23:36:38.441Z,101825.25
2024-02-19T23:39:06.030Z,101826.09
2024-02-19T23:41:32.628Z,101827.78
2024-02-19T23:43:59.250Z,101825.94
2024-02-19T23:46:27.184Z,101825.59
2024-02-19T23:48:56.510Z,101831.00
2024-02-19T23:51:23.355Z,101834.19
2024-02-19T23:53:50.049Z,101826.28
2024-02-19T23:56:16.663Z,101820.72
2024-02-19T23:58:43.332Z,101831.34
